Overview Statistics Trail Chart Weather Telemetry Raw packets
 

This is the latest recevied weather packets stored in our database for station/object YD2CLX-11. If no packets are shown the sender has not sent any weather packets the latest 10 day(s).

<< 35 36 37 38 39 40 41 >>
Time Temp. Humidity Pressure Rain* Wind** Luminosity Snow
1788060505 34.44° C 48% 999.7 hPa - - - -
1788059904 35.56° C 44% 999.7 hPa - - - -
1788059303 35° C 47% 999.9 hPa - - - -
1788058702 34.44° C 48% 1000.2 hPa - - - -
1788058101 35.56° C 47% 1000.1 hPa - - - -
1788057500 35° C 47% 1000.2 hPa - - - -
1788056899 33.89° C 48% 1000.4 hPa - - - -
1788056298 34.44° C 49% 1000.5 hPa - - - -
1788055697 33.89° C 51% 1000.6 hPa - - - -
1788055096 33.89° C 53% 1000.7 hPa - - - -
1788054495 32.22° C 56% 1000.9 hPa - - - -
1788053893 32.22° C 58% 1000.9 hPa - - - -
1788053292 31.67° C 59% 1001 hPa - - - -
1788052691 31.11° C 61% 1001 hPa - - - -
1788052090 31.67° C 61% 1001 hPa - - - -
1788051489 31.67° C 61% 1000.9 hPa - - - -
1788050887 30.56° C 64% 1000.8 hPa - - - -
1788050287 30° C 66% 1000.9 hPa - - - -
1788049685 29.44° C 67% 1000.8 hPa - - - -
1788049084 28.89° C 68% 1000.8 hPa - - - -
1788048483 27.78° C 75% 1000.8 hPa - - - -
1788047882 27.22° C 79% 1000.6 hPa - - - -
1788047281 26.11° C 80% 1000.5 hPa - - - -
1788046680 25° C 81% 1000.4 hPa - - - -
1788046079 24.44° C 82% 1000.5 hPa - - - -

* Rain since midnight (hover to see other rain measurements)
** Current wind speed in m/s (hover to see current wind gust speed)